| Date | Time | Temp. (oF) | Dew Point (oF) | Rel. Hum. (%) | Press. (in.) | Wind Dir. | Wind Speed (mph) | Hourly Rainfall (in.) |
|
|---|---|---|---|---|---|---|---|---|---|
| 1 | 11/23 | 00:00 | 31 | 17 | 56 | 29.54 | W | 14 | 0.00 |
| 2 | 11/22 | 23:00 | 32 | 18 | 57 | 29.51 | WNW | 9 | 0.00 |
| 3 | 11/22 | 22:00 | 33 | 20 | 59 | 29.49 | W | 11 | 0.00 |
| 4 | 11/22 | 21:00 | 35 | 21 | 58 | 29.47 | NNW | 8 | 0.00 |
| 5 | 11/22 | 20:00 | 37 | 23 | 58 | 29.44 | W | 16 | 0.00 |
| 6 | 11/22 | 19:00 | 37 | 23 | 58 | 29.41 | NW | 7 | 0.00 |
| 7 | 11/22 | 18:00 | 39 | 26 | 60 | 29.38 | NW | 11 | 0.00 |
| 8 | 11/22 | 17:00 | 42 | 29 | 62 | 29.35 | WNW | 7 | 0.00 |
| 9 | 11/22 | 16:00 | 43 | 31 | 63 | 29.29 | NW | 18 | 0.00 |
| 10 | 11/22 | 15:00 | 44 | 35 | 71 | 29.26 | NW | 10 | 0.00 |
| 11 | 11/22 | 14:00 | 45 | 36 | 73 | 29.20 | W | 15 | 0.00 |
| 12 | 11/22 | 13:00 | 45 | 38 | 79 | 29.19 | WNW | 12 | 0.00 |
| 13 | 11/22 | 12:00 | 42 | 38 | 87 | 29.21 | WNW | 15 | 0.00 |
| 14 | 11/22 | 11:00 | 41 | 39 | 95 | 29.22 | WNW | 18 | 0.01 |
| 15 | 11/22 | 10:00 | 41 | 41 | 100 | 29.22 | NNW | 10 | 0.00 |
| 16 | 11/22 | 09:00 | 40 | 40 | 100 | 29.21 | NW | 7 | 0.01 |
| 17 | 11/22 | 08:00 | 40 | 40 | 100 | 29.22 | NW | 7 | 0.00 |
| 18 | 11/22 | 07:00 | 40 | 40 | 100 | 29.22 | NW | 9 | 0.01 |
| 19 | 11/22 | 06:00 | 40 | 40 | 100 | 29.24 | NNW | 7 | 0.01 |
| 20 | 11/22 | 05:00 | 40 | 40 | 100 | 29.29 | NNW | 10 | 0.01 |
| 21 | 11/22 | 04:00 | 41 | 41 | 100 | 29.31 | NNW | 5 | 0.05 |
| 22 | 11/22 | 03:00 | 41 | 41 | 100 | 29.36 | NW | 7 | 0.02 |
| 23 | 11/22 | 02:00 | 42 | 41 | 100 | 29.39 | NNW | 6 | 0.03 |
| 24 | 11/22 | 01:00 | 41 | 41 | 100 | 29.43 | NW | 5 | 0.05 |